Terminal Aerodrome Forecast
Issued by NWS

Home | Current Version | Previous Version | Text Only | Print | Product List | Glossary On
Versions: 1 2 3 4 5 6 7 8 9 10 11 12 13 14 15 16
389
FTUS44 KJAN 242330
TAFGTR
TAF
KGTR 242330Z 2500/2524 22005KT P6SM VCTS BKN030CB
     FM250300 23003KT 5SM BR BKN050
     FM251100 00000KT P6SM BKN025
     FM251400 28003KT P6SM BKN035
     FM251900 26004KT P6SM VCTS BKN050CB=

USA.gov is the U.S. government's official web portal to all federal, state and local government web resources and services.